Time;durP1;ratioP1;P1;durP2;ratioP2;P2;SDS_P1;SDS_P2;PMS_P1;PMS_P2;Temp;Humidity;BMP_temperature;BMP_pressure;BME280_temperature;BME280_humidity;BME280_pressure;Samples;Min_cycle;Max_cycle;Signal;HPM_P1;HPM_P2
2022/01/07 00:02:13;;;;;;;6.72;2.00;;;5.20;99.90;;;;;;5060549;28;20536;-79
2022/01/07 00:04:51;;;;;;;2.33;1.60;;;5.20;99.90;;;;;;5063250;28;20177;-78
2022/01/07 00:10:20;;;;;;;5.67;2.30;;;5.20;99.90;;;;;;5060055;28;20206;-78
2022/01/07 00:12:50;;;;;;;6.20;2.33;;;5.20;99.90;;;;;;5046443;28;20455;-79
2022/01/07 00:15:17;;;;;;;5.20;2.03;;;5.10;99.90;;;;;;5060996;28;20476;-79
2022/01/07 00:17:46;;;;;;;4.63;2.33;;;5.10;99.90;;;;;;5056262;28;20532;-79
2022/01/07 00:20:14;;;;;;;3.50;2.00;;;5.20;99.90;;;;;;5060336;28;20276;-80
2022/01/07 00:22:42;;;;;;;5.20;2.33;;;5.10;99.90;;;;;;5062509;28;20460;-79
2022/01/07 00:25:11;;;;;;;8.00;2.20;;;5.00;99.90;;;;;;5059456;28;20427;-79
2022/01/07 00:27:41;;;;;;;7.13;2.27;;;5.00;99.90;;;;;;5058204;28;20953;-79
2022/01/07 00:30:10;;;;;;;6.07;2.40;;;5.00;99.90;;;;;;5061449;28;20486;-78
2022/01/07 00:32:37;;;;;;;5.17;2.30;;;4.90;99.90;;;;;;5059647;28;20927;-80
2022/01/07 00:35:08;;;;;;;4.20;2.10;;;4.90;99.90;;;;;;5059689;28;20485;-79
2022/01/07 00:37:35;;;;;;;7.57;2.90;;;4.90;99.90;;;;;;5047345;28;20460;-78
2022/01/07 00:40:04;;;;;;;7.10;2.60;;;4.80;99.90;;;;;;5038402;28;20455;-78
2022/01/07 00:42:33;;;;;;;4.20;2.50;;;4.90;99.90;;;;;;5060956;28;20436;-79
2022/01/07 00:45:02;;;;;;;5.00;2.20;;;4.80;99.90;;;;;;5062574;28;20822;-79
2022/01/07 00:47:30;;;;;;;6.37;2.93;;;4.80;99.90;;;;;;5060406;28;20526;-80
2022/01/07 00:50:14;;;;;;;7.83;2.30;;;4.80;99.90;;;;;;5044021;28;20439;-80
2022/01/07 00:52:45;;;;;;;7.93;2.70;;;4.70;99.90;;;;;;5058306;28;20827;-79
2022/01/07 00:55:23;;;;;;;11.43;3.17;;;4.70;99.90;;;;;;5057763;28;20498;-79
2022/01/07 00:57:50;;;;;;;4.33;2.43;;;4.60;99.90;;;;;;5056375;28;20910;-78
2022/01/07 01:00:21;;;;;;;6.03;2.37;;;4.70;99.90;;;;;;5035692;28;20459;-78
2022/01/07 01:03:02;;;;;;;7.13;3.23;;;4.70;99.90;;;;;;5054262;28;20442;-79
2022/01/07 01:06:08;;;;;;;8.00;2.80;;;4.70;99.90;;;;;;5037549;28;20458;-79
2022/01/07 01:08:49;;;;;;;8.52;3.92;;;4.60;99.90;;;;;;5034615;28;20944;-79
2022/01/07 01:11:24;;;;;;;8.67;3.10;;;4.60;99.90;;;;;;5056237;28;20216;-79
2022/01/07 01:14:01;;;;;;;8.63;3.33;;;4.60;99.90;;;;;;5047474;28;20265;-78
2022/01/07 01:16:38;;;;;;;8.23;3.43;;;4.50;99.90;;;;;;5064176;28;20498;-80
2022/01/07 01:22:35;;;;;;;11.17;3.87;;;4.30;99.90;;;;;;5064450;28;20455;-79
2022/01/07 01:25:14;;;;;;;9.30;3.57;;;4.30;99.90;;;;;;5068383;28;20451;-80
2022/01/07 01:27:53;;;;;;;6.90;3.80;;;4.20;99.90;;;;;;5065542;28;20439;-80
2022/01/07 01:30:26;;;;;;;9.90;4.13;;;4.20;99.90;;;;;;5068149;28;20463;-80
2022/01/07 01:33:11;;;;;;;7.27;3.97;;;4.20;99.90;;;;;;5068890;28;20460;-81
2022/01/07 01:36:05;;;;;;;11.07;3.97;;;4.10;99.90;;;;;;5067790;28;20487;-80
2022/01/07 01:38:32;;;;;;;9.03;4.30;;;4.00;99.90;;;;;;5066453;28;20500;-80
2022/01/07 01:41:03;;;;;;;11.70;4.43;;;4.00;99.90;;;;;;5063590;28;20438;-80
2022/01/07 01:43:32;;;;;;;8.53;4.00;;;4.00;99.90;;;;;;5058952;28;20194;-80
2022/01/07 01:46:04;;;;;;;9.47;4.30;;;4.10;99.90;;;;;;5057732;28;20424;-80
2022/01/07 01:48:35;;;;;;;13.43;4.70;;;4.10;99.90;;;;;;5058622;28;20528;-80
2022/01/07 01:51:03;;;;;;;9.10;4.00;;;4.00;99.90;;;;;;5059629;28;20447;-80
2022/01/07 01:53:32;;;;;;;12.87;4.87;;;4.00;99.90;;;;;;5060344;28;20468;-80
2022/01/07 01:56:04;;;;;;;6.43;4.37;;;4.00;99.90;;;;;;5061572;28;20475;-80
2022/01/07 01:58:32;;;;;;;8.70;4.57;;;3.90;99.90;;;;;;5062805;28;20551;-80
2022/01/07 02:01:03;;;;;;;7.43;4.40;;;3.90;99.90;;;;;;5062092;28;20447;-80
2022/01/07 02:03:34;;;;;;;8.63;4.83;;;3.90;99.90;;;;;;5068116;28;20451;-80
2022/01/07 02:06:20;;;;;;;14.33;4.83;;;3.80;99.90;;;;;;5050383;28;20438;-80
2022/01/07 02:08:50;;;;;;;10.37;5.03;;;3.90;99.90;;;;;;5066297;28;20447;-80
2022/01/07 02:14:06;;;;;;;9.97;4.50;;;3.90;99.90;;;;;;5064799;28;20462;-80
2022/01/07 02:16:36;;;;;;;9.17;5.40;;;3.80;99.90;;;;;;5058369;28;20481;-79
2022/01/07 02:19:09;;;;;;;10.73;5.33;;;3.80;99.90;;;;;;5057855;28;20524;-81
2022/01/07 02:21:41;;;;;;;6.27;5.10;;;4.00;99.90;;;;;;5061205;28;20985;-80
2022/01/07 02:24:09;;;;;;;6.60;4.87;;;3.80;99.90;;;;;;5060910;28;20440;-80
2022/01/07 02:26:38;;;;;;;9.57;5.07;;;3.80;99.90;;;;;;5059897;28;20463;-79
2022/01/07 02:29:08;;;;;;;7.10;5.03;;;3.80;99.90;;;;;;5060658;28;20428;-80
2022/01/07 02:31:37;;;;;;;8.77;5.37;;;3.90;99.90;;;;;;5059833;28;20540;-80
2022/01/07 02:34:12;;;;;;;6.43;4.80;;;3.90;99.90;;;;;;5060821;28;20431;-80
2022/01/07 02:36:56;;;;;;;8.30;5.43;;;3.80;99.90;;;;;;5060315;28;21035;-80
2022/01/07 02:39:25;;;;;;;7.83;5.77;;;3.70;99.90;;;;;;5042424;28;20454;-80
2022/01/07 02:41:52;;;;;;;7.70;5.00;;;3.80;99.90;;;;;;5060953;28;20501;-81
2022/01/07 02:44:23;;;;;;;7.03;5.30;;;3.80;99.90;;;;;;5060812;28;20483;-80
2022/01/07 02:46:57;;;;;;;10.07;6.33;;;3.80;99.90;;;;;;5060890;28;20452;-79
2022/01/07 02:49:29;;;;;;;10.67;5.30;;;4.00;99.90;;;;;;5062449;28;20436;-80
2022/01/07 02:52:06;;;;;;;9.37;5.87;;;3.80;99.90;;;;;;5063359;28;20462;-80
2022/01/07 02:54:35;;;;;;;6.50;5.87;;;3.90;99.90;;;;;;5062856;28;20471;-79
2022/01/07 02:57:03;;;;;;;8.57;5.37;;;4.00;99.90;;;;;;5061745;28;20487;-80
2022/01/07 02:59:36;;;;;;;14.10;5.73;;;4.00;99.90;;;;;;5062434;28;20495;-80
2022/01/07 03:02:09;;;;;;;10.97;6.30;;;4.00;99.90;;;;;;5062477;28;20456;-80
2022/01/07 03:04:41;;;;;;;11.43;5.90;;;4.10;99.90;;;;;;5068721;28;20470;-80
2022/01/07 03:07:11;;;;;;;14.97;5.90;;;4.10;99.90;;;;;;5070596;28;20936;-80
2022/01/07 03:09:50;;;;;;;14.80;6.43;;;4.00;99.90;;;;;;5068768;28;21053;-81
2022/01/07 03:12:17;;;;;;;13.87;6.63;;;4.00;99.90;;;;;;5069902;28;20454;-81
2022/01/07 03:14:48;;;;;;;7.93;6.50;;;4.10;99.90;;;;;;5073523;28;20471;-80
2022/01/07 03:17:16;;;;;;;11.07;6.03;;;4.10;99.90;;;;;;5072081;28;20832;-84
2022/01/07 03:19:44;;;;;;;12.23;7.63;;;4.20;99.90;;;;;;5052989;28;20486;-80
2022/01/07 03:22:20;;;;;;;14.63;6.73;;;4.10;99.90;;;;;;5068960;28;20447;-80
2022/01/07 03:24:50;;;;;;;7.40;6.63;;;4.20;99.90;;;;;;5070666;28;20443;-80
2022/01/07 03:27:26;;;;;;;10.47;7.30;;;4.20;99.90;;;;;;5054332;28;20443;-81
2022/01/07 03:30:10;;;;;;;14.27;6.53;;;4.20;99.90;;;;;;5054939;28;20436;-80
2022/01/07 03:32:46;;;;;;;12.40;6.90;;;4.20;99.90;;;;;;5071307;28;20439;-79
2022/01/07 03:35:21;;;;;;;10.00;6.97;;;4.20;99.90;;;;;;5070175;28;20442;-79
2022/01/07 03:37:54;;;;;;;9.37;6.77;;;4.30;99.90;;;;;;5071680;28;20487;-82
2022/01/07 03:40:23;;;;;;;9.23;6.80;;;4.30;99.90;;;;;;5054959;28;20456;-80
2022/01/07 03:42:53;;;;;;;9.87;6.90;;;4.30;99.90;;;;;;5070769;28;20435;-81
2022/01/07 03:45:26;;;;;;;13.80;6.80;;;4.30;99.90;;;;;;5036885;28;20497;-81
2022/01/07 03:47:54;;;;;;;9.20;6.67;;;4.30;99.90;;;;;;5064427;28;20439;-80
2022/01/07 03:50:25;;;;;;;12.23;7.07;;;4.40;99.90;;;;;;5065289;28;20439;-80
2022/01/07 03:53:02;;;;;;;15.63;7.37;;;4.40;99.90;;;;;;5070076;28;20444;-80
2022/01/07 03:55:35;;;;;;;11.47;7.13;;;4.40;99.90;;;;;;5065133;28;20510;-80
2022/01/07 03:58:02;;;;;;;8.37;6.80;;;4.50;99.90;;;;;;5066680;28;20487;-80
2022/01/07 04:00:42;;;;;;;13.38;8.77;;;4.50;99.90;;;;;;5067694;28;20448;-83
2022/01/07 04:03:11;;;;;;;11.13;7.77;;;4.50;99.90;;;;;;5070305;28;20195;-80
2022/01/07 04:05:38;;;;;;;12.10;7.77;;;4.50;99.90;;;;;;5070030;28;20442;-80
2022/01/07 04:08:07;;;;;;;10.13;6.40;;;4.50;99.90;;;;;;5067741;28;20428;-80
2022/01/07 04:10:45;;;;;;;10.10;6.87;;;4.50;99.90;;;;;;5067155;28;20431;-80
2022/01/07 04:13:14;;;;;;;14.30;6.70;;;4.60;99.90;;;;;;5067288;28;20458;-80
2022/01/07 04:15:46;;;;;;;11.73;6.60;;;4.50;99.90;;;;;;5068955;28;20440;-81
2022/01/07 04:18:17;;;;;;;8.43;6.30;;;4.50;99.90;;;;;;5065978;28;20547;-80
2022/01/07 04:20:46;;;;;;;9.63;6.40;;;4.60;99.90;;;;;;5068723;28;20443;-80
2022/01/07 04:23:17;;;;;;;10.17;5.90;;;4.60;99.90;;;;;;5065161;28;20439;-80
2022/01/07 04:25:52;;;;;;;10.27;5.23;;;4.70;99.90;;;;;;5069465;28;20492;-80
2022/01/07 04:28:20;;;;;;;11.73;5.47;;;4.70;99.90;;;;;;5065721;28;20431;-80
2022/01/07 04:30:49;;;;;;;8.03;5.67;;;4.70;99.90;;;;;;5044870;28;20451;-80
2022/01/07 04:33:26;;;;;;;12.00;5.90;;;4.80;99.90;;;;;;5064429;28;20425;-81
2022/01/07 04:35:55;;;;;;;11.57;5.80;;;4.70;99.90;;;;;;5064899;28;20195;-80
2022/01/07 04:38:23;;;;;;;8.67;5.73;;;4.70;99.90;;;;;;5065595;28;20462;-80
2022/01/07 04:41:00;;;;;;;11.77;5.50;;;4.70;99.90;;;;;;5064011;28;20436;-81
2022/01/07 04:43:28;;;;;;;10.03;5.33;;;4.70;99.90;;;;;;5068152;28;20435;-80
2022/01/07 04:46:02;;;;;;;9.40;5.47;;;4.70;99.90;;;;;;5067240;28;20438;-80
2022/01/07 04:48:29;;;;;;;8.30;4.60;;;4.70;99.90;;;;;;5065649;28;20487;-81
2022/01/07 04:50:56;;;;;;;12.13;5.70;;;4.80;99.90;;;;;;5063870;28;20501;-79
2022/01/07 04:53:26;;;;;;;9.73;5.97;;;4.70;99.90;;;;;;5064271;28;20440;-80
2022/01/07 04:55:56;;;;;;;7.80;4.43;;;4.70;99.90;;;;;;5066196;28;20946;-79
2022/01/07 04:58:24;;;;;;;15.83;5.90;;;4.80;99.90;;;;;;5066728;28;20440;-80
2022/01/07 05:00:55;;;;;;;8.60;4.77;;;4.70;99.90;;;;;;5062784;28;20427;-79
2022/01/07 05:03:24;;;;;;;8.90;4.70;;;4.70;99.90;;;;;;5063995;28;20432;-80
2022/01/07 05:06:24;;;;;;;7.50;5.17;;;4.70;99.90;;;;;;5064773;28;20435;-82
2022/01/07 05:08:55;;;;;;;9.93;5.80;;;4.70;99.90;;;;;;5067570;28;20436;-79
2022/01/07 05:11:23;;;;;;;7.63;5.43;;;4.80;99.90;;;;;;5064596;28;20442;-80
2022/01/07 05:13:53;;;;;;;10.77;5.70;;;4.80;99.90;;;;;;5063979;28;20431;-79
2022/01/07 05:16:24;;;;;;;13.67;5.33;;;4.90;99.90;;;;;;5064267;28;20191;-80
2022/01/07 05:18:51;;;;;;;9.73;4.67;;;4.80;99.90;;;;;;5064097;28;20226;-80
2022/01/07 05:21:24;;;;;;;11.47;5.10;;;4.80;99.90;;;;;;5063229;28;20470;-79
2022/01/07 05:23:52;;;;;;;8.37;4.60;;;4.80;99.90;;;;;;5063531;28;20294;-78
2022/01/07 05:26:22;;;;;;;9.93;5.43;;;4.90;99.90;;;;;;5065081;28;20195;-80
2022/01/07 05:28:51;;;;;;;7.93;5.23;;;4.90;99.90;;;;;;5062009;28;20439;-80
2022/01/07 05:31:26;;;;;;;11.57;5.17;;;4.90;99.90;;;;;;5062867;28;20427;-80
2022/01/07 05:33:56;;;;;;;6.73;4.70;;;4.90;99.90;;;;;;5062051;28;20205;-80
2022/01/07 05:36:24;;;;;;;6.63;4.53;;;4.90;99.90;;;;;;5063851;28;20646;-80
2022/01/07 05:38:54;;;;;;;6.60;4.50;;;4.80;99.90;;;;;;5063326;28;20447;-78
2022/01/07 05:41:22;;;;;;;8.90;4.20;;;4.80;99.90;;;;;;5063422;28;20435;-80
2022/01/07 05:43:50;;;;;;;12.53;4.80;;;4.80;99.90;;;;;;5063708;28;20507;-80
2022/01/07 05:46:17;;;;;;;10.27;5.80;;;4.80;99.90;;;;;;5061555;28;20425;-80
2022/01/07 05:48:44;;;;;;;12.87;5.47;;;4.90;99.90;;;;;;5062277;28;20436;-80
2022/01/07 05:51:12;;;;;;;10.87;5.10;;;4.90;99.90;;;;;;5062611;28;20206;-80
2022/01/07 05:53:41;;;;;;;8.03;4.93;;;4.90;99.90;;;;;;5063231;28;20440;-82
2022/01/07 05:56:09;;;;;;;11.03;4.93;;;4.90;99.90;;;;;;5071168;28;20434;-80
2022/01/07 05:58:43;;;;;;;8.07;4.10;;;4.90;99.90;;;;;;5071515;28;20464;-80
2022/01/07 06:01:13;;;;;;;9.53;4.57;;;4.90;99.90;;;;;;5069151;28;20447;-80
2022/01/07 06:03:40;;;;;;;7.57;4.70;;;4.90;99.90;;;;;;5070152;28;20203;-80
2022/01/07 06:06:09;;;;;;;7.47;4.20;;;5.00;99.90;;;;;;5068802;28;20835;-80
2022/01/07 06:08:39;;;;;;;7.23;4.70;;;4.90;99.90;;;;;;5066440;28;20432;-79
2022/01/07 06:11:06;;;;;;;10.67;5.13;;;4.90;99.90;;;;;;5065360;28;20438;-80
2022/01/07 06:13:34;;;;;;;10.40;4.87;;;5.00;99.90;;;;;;5068474;28;20435;-79
2022/01/07 06:16:05;;;;;;;11.70;4.97;;;5.00;99.90;;;;;;5070727;28;20205;-80
2022/01/07 06:18:33;;;;;;;7.53;3.93;;;5.10;99.90;;;;;;5065831;28;20238;-79
2022/01/07 06:21:00;;;;;;;8.85;4.75;;;5.10;99.90;;;;;;5063687;28;20455;-79
2022/01/07 06:23:26;;;;;;;12.37;5.40;;;5.10;99.90;;;;;;5064429;28;20202;-80
2022/01/07 06:25:58;;;;;;;9.80;4.67;;;5.20;99.90;;;;;;5064793;28;20501;-80
2022/01/07 06:28:26;;;;;;;7.43;4.00;;;5.10;99.90;;;;;;5065572;28;20439;-80
2022/01/07 06:30:58;;;;;;;10.17;4.90;;;5.20;99.90;;;;;;5066077;28;20229;-81
2022/01/07 06:33:35;;;;;;;7.67;4.40;;;5.10;99.90;;;;;;5065708;28;20443;-82
2022/01/07 06:36:04;;;;;;;9.43;4.77;;;5.00;99.90;;;;;;5062841;28;20475;-79
2022/01/07 06:38:31;;;;;;;9.23;4.77;;;5.10;99.90;;;;;;5062016;28;20230;-80
2022/01/07 06:40:58;;;;;;;5.87;3.83;;;5.10;99.90;;;;;;5069721;28;20439;-79
2022/01/07 06:43:28;;;;;;;10.23;4.30;;;5.10;99.90;;;;;;5082820;28;20570;-81
2022/01/07 06:45:58;;;;;;;7.77;4.07;;;5.10;99.90;;;;;;5062675;28;20452;-79
2022/01/07 06:48:28;;;;;;;10.03;4.40;;;5.10;99.90;;;;;;5047138;28;20447;-80
2022/01/07 06:50:58;;;;;;;8.50;4.23;;;5.10;99.90;;;;;;5061100;28;20468;-80
2022/01/07 06:53:25;;;;;;;6.37;3.40;;;5.10;99.90;;;;;;5061634;28;20455;-80
2022/01/07 06:55:53;;;;;;;7.47;3.63;;;5.10;99.90;;;;;;5061668;28;20220;-80
2022/01/07 06:58:42;;;;;;;8.13;4.30;;;5.10;99.90;;;;;;5068239;28;20575;-81
2022/01/07 07:01:10;;;;;;;8.33;3.87;;;5.20;99.90;;;;;;5070032;28;20447;-79
2022/01/07 07:03:39;;;;;;;7.17;3.73;;;5.20;99.90;;;;;;5060571;28;20442;-79
2022/01/07 07:06:08;;;;;;;7.40;3.90;;;5.30;99.90;;;;;;5061032;28;20448;-79
2022/01/07 07:08:39;;;;;;;7.80;4.13;;;5.20;99.90;;;;;;5076660;28;20543;-82
2022/01/07 07:11:17;;;;;;;11.93;4.80;;;5.20;99.90;;;;;;5062235;28;20431;-82
2022/01/07 07:13:48;;;;;;;10.27;4.40;;;5.40;99.90;;;;;;5061396;28;20186;-82
2022/01/07 07:16:24;;;;;;;7.60;4.27;;;5.30;99.90;;;;;;5078353;28;20254;-81
2022/01/07 07:19:08;;;;;;;10.83;3.90;;;5.30;99.90;;;;;;5062133;28;20214;-82
2022/01/07 07:22:05;;;;;;;8.50;3.60;;;5.30;99.90;;;;;;5079050;28;20209;-82
2022/01/07 07:27:26;;;;;;;8.43;3.57;;;5.30;99.90;;;;;;5077516;28;20186;-81
2022/01/07 07:30:02;;;;;;;12.97;4.37;;;5.20;99.90;;;;;;5079023;28;20215;-83
2022/01/07 07:32:38;;;;;;;8.67;3.87;;;5.20;99.90;;;;;;5078371;28;20186;-83
2022/01/07 07:38:26;;;;;;;9.80;3.70;;;5.30;99.90;;;;;;5038206;28;20230;-82
2022/01/07 07:41:02;;;;;;;9.93;3.53;;;5.30;99.90;;;;;;5037992;28;20219;-82
2022/01/07 07:43:32;;;;;;;9.40;3.53;;;5.30;99.90;;;;;;5036560;28;20191;-81
2022/01/07 07:46:06;;;;;;;7.67;3.20;;;5.30;99.90;;;;;;5049377;28;20230;-82
2022/01/07 07:48:36;;;;;;;12.17;3.50;;;5.30;99.90;;;;;;5078027;28;20203;-81
2022/01/07 07:51:05;;;;;;;5.37;3.13;;;5.30;99.90;;;;;;5078435;28;20624;-82
2022/01/07 07:54:01;;;;;;;8.20;3.70;;;5.30;99.90;;;;;;5078454;28;20226;-82
2022/01/07 07:59:41;;;;;;;8.00;3.10;;;5.30;99.90;;;;;;5077302;28;20249;-82
2022/01/07 08:08:24;;;;;;;6.83;2.80;;;5.00;99.90;;;;;;5064177;28;20183;-82
2022/01/07 08:11:05;;;;;;;5.30;2.50;;;5.10;99.90;;;;;;5077768;28;20194;-82
2022/01/07 08:17:02;;;;;;;8.33;2.90;;;5.10;99.90;;;;;;5077323;28;20438;-84
2022/01/07 08:19:59;;;;;;;7.60;2.30;;;5.20;99.90;;;;;;5078188;28;20218;-82
2022/01/07 08:22:57;;;;;;;3.87;2.20;;;5.20;99.90;;;;;;5057264;28;20187;-82
2022/01/07 08:28:52;;;;;;;6.47;2.87;;;5.30;99.90;;;;;;5057173;28;20203;-82
2022/01/07 08:40:11;;;;;;;3.93;2.80;;;5.50;99.90;;;;;;5055097;28;20285;-81
2022/01/07 08:42:45;;;;;;;5.70;2.77;;;5.40;99.90;;;;;;5057771;28;20187;-80
2022/01/07 08:45:52;;;;;;;6.77;2.80;;;5.40;99.90;;;;;;5058357;28;20175;-82
2022/01/07 08:48:36;;;;;;;10.68;3.70;;;5.40;99.90;;;;;;5040119;28;20560;-81
2022/01/07 08:51:09;;;;;;;7.50;2.90;;;5.50;99.90;;;;;;5054667;28;20225;-82
2022/01/07 08:54:00;;;;;;;5.80;3.30;;;5.50;99.90;;;;;;5057238;28;20182;-81
2022/01/07 08:56:34;;;;;;;7.23;3.80;;;5.60;99.90;;;;;;5039899;28;20191;-81
2022/01/07 08:59:14;;;;;;;5.77;2.73;;;5.60;99.90;;;;;;5056895;28;20238;-82
2022/01/07 09:01:59;;;;;;;5.50;3.27;;;5.60;99.90;;;;;;5056785;28;20262;-82
2022/01/07 09:04:41;;;;;;;8.63;3.20;;;5.60;99.90;;;;;;5057283;28;20234;-81
2022/01/07 09:07:34;;;;;;;11.60;3.37;;;5.60;99.90;;;;;;5057369;28;20183;-82
2022/01/07 09:10:06;;;;;;;7.17;3.57;;;5.60;99.90;;;;;;5039940;28;20229;-82
2022/01/07 09:12:56;;;;;;;8.07;3.60;;;5.50;99.90;;;;;;5056719;28;20234;-83
2022/01/07 09:16:17;;;;;;;12.40;3.67;;;5.50;99.90;;;;;;5057834;28;20210;-84
2022/01/07 09:19:03;;;;;;;8.30;4.07;;;5.40;99.90;;;;;;5041580;28;20234;-82
2022/01/07 09:21:44;;;;;;;10.00;3.87;;;5.50;99.90;;;;;;5066485;28;20214;-82
2022/01/07 09:24:46;;;;;;;8.87;3.77;;;5.50;99.90;;;;;;5077458;28;20202;-82
2022/01/07 09:27:25;;;;;;;9.40;4.10;;;5.60;99.90;;;;;;5076538;28;20213;-82
2022/01/07 09:32:40;;;;;;;7.67;4.10;;;5.60;99.90;;;;;;5082120;28;20246;-81
2022/01/07 09:35:59;;;;;;;9.30;4.37;;;5.60;99.90;;;;;;5081155;28;20201;-82
2022/01/07 09:42:02;;;;;;;9.87;5.70;;;5.60;99.90;;;;;;5079112;28;20199;-81
2022/01/07 09:45:07;;;;;;;11.87;4.70;;;5.60;99.90;;;;;;5081960;28;20257;-82
2022/01/07 09:48:04;;;;;;;14.67;5.20;;;5.60;99.90;;;;;;5065545;28;20194;-82
2022/01/07 09:56:51;;;;;;;9.37;4.60;;;5.40;99.90;;;;;;5080115;28;20187;-82
2022/01/07 10:05:36;;;;;;;10.43;4.50;;;5.60;99.90;;;;;;5081798;28;20241;-83
2022/01/07 10:12:18;;;;;;;9.07;4.33;;;5.60;99.90;;;;;;5081101;28;20202;-82
2022/01/07 10:15:15;;;;;;;10.60;4.47;;;5.70;99.90;;;;;;5076775;28;20193;-81
2022/01/07 10:31:20;;;;;;;8.13;4.10;;;5.90;99.90;;;;;;5033893;28;20237;-81
2022/01/07 10:34:21;;;;;;;15.30;3.80;;;5.90;99.90;;;;;;5047010;28;20191;-82
2022/01/07 10:37:17;;;;;;;10.67;4.23;;;6.10;99.90;;;;;;5033928;28;20709;-82
2022/01/07 10:39:45;;;;;;;9.60;4.35;;;6.10;99.90;;;;;;5036130;28;20481;-81
2022/01/07 10:42:47;;;;;;;10.80;4.13;;;6.20;99.90;;;;;;5067480;28;20233;-81
2022/01/07 10:48:34;;;;;;;6.07;3.43;;;6.10;99.90;;;;;;5053243;28;20191;-81
2022/01/07 10:54:48;;;;;;;7.67;3.33;;;6.20;99.90;;;;;;5056520;28;20210;-82
2022/01/07 10:57:47;;;;;;;10.67;3.40;;;6.20;99.90;;;;;;5058834;28;20187;-83
2022/01/07 11:00:47;;;;;;;13.53;3.60;;;6.20;99.90;;;;;;5044197;28;20260;-81
2022/01/07 11:03:43;;;;;;;7.90;4.03;;;6.20;99.90;;;;;;5048351;28;20199;-81
2022/01/07 11:06:25;;;;;;;6.10;2.80;;;6.20;99.90;;;;;;5070555;28;20218;-80
2022/01/07 11:08:55;;;;;;;4.23;2.50;;;6.50;99.90;;;;;;5052376;28;20215;-81
2022/01/07 11:11:34;;;;;;;7.90;2.80;;;6.30;99.90;;;;;;5072773;28;20256;-81
2022/01/07 11:14:17;;;;;;;11.13;3.07;;;6.40;99.90;;;;;;5073441;28;20208;-81
2022/01/07 11:17:10;;;;;;;7.10;3.03;;;6.40;99.90;;;;;;5073230;28;20437;-81
2022/01/07 11:19:44;;;;;;;7.97;3.10;;;6.50;99.90;;;;;;5073052;28;20241;-81
2022/01/07 11:25:44;;;;;;;5.97;3.07;;;6.50;99.90;;;;;;5081285;28;20193;-81
2022/01/07 11:28:35;;;;;;;5.00;3.70;;;6.50;99.90;;;;;;5052993;28;20246;-81
2022/01/07 11:34:46;;;;;;;5.43;3.00;;;6.50;99.90;;;;;;5055419;28;20283;-81
2022/01/07 11:38:00;;;;;;;5.77;3.57;;;6.50;99.90;;;;;;5056693;28;20237;-82
2022/01/07 11:40:46;;;;;;;10.83;3.20;;;6.50;99.90;;;;;;5057090;28;20219;-81
2022/01/07 11:43:45;;;;;;;5.17;2.80;;;6.60;99.90;;;;;;5054564;28;20245;-81
2022/01/07 11:46:39;;;;;;;7.33;2.77;;;6.50;99.90;;;;;;5053511;28;20211;-81
2022/01/07 11:49:36;;;;;;;7.27;2.50;;;6.40;99.90;;;;;;5038127;28;20211;-82
2022/01/07 11:52:35;;;;;;;6.83;2.07;;;6.40;99.90;;;;;;5052147;28;20234;-81
2022/01/07 11:55:27;;;;;;;6.90;2.80;;;6.60;99.90;;;;;;5052494;28;20415;-81
2022/01/07 11:58:04;;;;;;;6.53;2.37;;;6.70;99.90;;;;;;5020549;28;20211;-81
2022/01/07 12:07:42;;;;;;;7.50;2.77;;;6.80;99.90;;;;;;5058105;28;20199;-82
2022/01/07 12:10:26;;;;;;;4.40;2.13;;;6.60;99.90;;;;;;5056341;28;20255;-81
2022/01/07 12:13:03;;;;;;;4.17;1.83;;;6.60;99.90;;;;;;5040505;28;20231;-82
2022/01/07 12:15:58;;;;;;;6.33;1.80;;;6.50;99.90;;;;;;5057367;28;20353;-82
2022/01/07 12:18:55;;;;;;;6.03;2.27;;;6.30;99.90;;;;;;5056686;28;20235;-82
2022/01/07 12:21:52;;;;;;;4.83;1.80;;;6.20;99.90;;;;;;5057281;28;20187;-81
2022/01/07 12:24:46;;;;;;;4.73;1.90;;;6.20;99.90;;;;;;5056064;28;20182;-82
2022/01/07 12:27:20;;;;;;;2.97;1.90;;;6.10;99.90;;;;;;5038612;28;20241;-81
2022/01/07 12:29:55;;;;;;;4.30;1.60;;;6.10;99.90;;;;;;5037435;28;20203;-81
2022/01/07 12:32:42;;;;;;;4.63;1.90;;;6.10;99.90;;;;;;5038671;28;20437;-81
2022/01/07 12:35:17;;;;;;;3.07;1.43;;;6.20;99.90;;;;;;5055566;28;20192;-82
2022/01/07 12:38:22;;;;;;;3.97;1.90;;;6.20;99.90;;;;;;5054301;28;20197;-82
2022/01/07 12:47:45;;;;;;;2.70;1.50;;;6.50;99.90;;;;;;5080889;28;20201;-80
2022/01/07 12:50:45;;;;;;;4.13;1.30;;;6.50;99.90;;;;;;5069393;28;20246;-81
2022/01/07 12:53:22;;;;;;;2.57;1.40;;;6.30;99.90;;;;;;5071620;28;20621;-81
2022/01/07 12:55:55;;;;;;;4.70;1.43;;;6.50;99.90;;;;;;5070481;28;20208;-81
2022/01/07 12:58:38;;;;;;;6.13;1.30;;;6.50;99.90;;;;;;5065915;28;20203;-81
2022/01/07 13:01:26;;;;;;;2.73;1.20;;;6.40;99.90;;;;;;5074753;28;20206;-81
2022/01/07 13:04:49;;;;;;;1.73;1.10;;;6.40;99.90;;;;;;5053098;28;20275;-81
2022/01/07 13:07:17;;;;;;;1.93;1.00;;;6.30;99.90;;;;;;5056387;28;20183;-81
2022/01/07 13:10:04;;;;;;;4.53;1.07;;;6.20;99.90;;;;;;5068441;28;20668;-81
2022/01/07 13:19:04;;;;;;;5.50;1.63;;;6.30;99.90;;;;;;5043478;28;20223;-81
2022/01/07 13:24:37;;;;;;;2.27;1.40;;;6.50;99.90;;;;;;5058529;28;20199;-82
2022/01/07 13:31:15;;;;;;;2.40;1.27;;;6.20;99.90;;;;;;5082519;22;20237;-81
2022/01/07 13:34:11;;;;;;;4.13;1.63;;;6.10;99.90;;;;;;5089287;28;20210;-81
2022/01/07 13:37:02;;;;;;;4.43;2.50;;;5.90;99.90;;;;;;5088814;28;20209;-81
2022/01/07 13:39:41;;;;;;;6.27;2.03;;;5.90;99.90;;;;;;5076274;28;20240;-82
2022/01/07 13:45:06;;;;;;;4.20;2.00;;;5.80;99.90;;;;;;5073772;28;20203;-82
2022/01/07 13:47:38;;;;;;;5.40;2.08;;;5.70;99.90;;;;;;5081895;28;20450;-81
2022/01/07 13:50:14;;;;;;;7.30;2.13;;;5.70;99.90;;;;;;5085248;28;20189;-81
2022/01/07 13:52:51;;;;;;;3.20;1.70;;;5.70;99.90;;;;;;5086886;28;20203;-81
2022/01/07 14:10:02;;;;;;;5.43;1.33;;;5.50;99.90;;;;;;5035550;28;20195;-82
2022/01/07 14:13:01;;;;;;;5.10;1.50;;;5.40;99.90;;;;;;5032057;28;20200;-80
2022/01/07 14:15:36;;;;;;;4.13;1.50;;;5.20;99.90;;;;;;5006039;28;20213;-80
2022/01/07 14:18:20;;;;;;;3.33;1.63;;;5.20;99.90;;;;;;5029945;28;20476;-80
2022/01/07 14:20:51;;;;;;;3.15;1.40;;;5.10;99.90;;;;;;5021837;28;20483;-81
2022/01/07 14:26:34;;;;;;;3.53;1.30;;;4.90;99.90;;;;;;5038083;28;20259;-81
2022/01/07 14:29:14;;;;;;;3.50;1.23;;;4.80;99.90;;;;;;5039715;28;20207;-81
2022/01/07 14:32:00;;;;;;;2.60;1.10;;;4.80;99.90;;;;;;5039695;28;20445;-82
2022/01/07 14:35:00;;;;;;;2.70;1.10;;;4.90;99.90;;;;;;5039473;28;20468;-82
2022/01/07 14:37:40;;;;;;;4.97;1.20;;;5.00;99.90;;;;;;5035754;28;20445;-80
2022/01/07 14:40:16;;;;;;;3.00;1.60;;;4.90;99.90;;;;;;5034099;28;20231;-81
2022/01/07 14:42:44;;;;;;;3.40;1.33;;;5.00;99.90;;;;;;5034415;28;20195;-81
2022/01/07 14:45:35;;;;;;;3.37;1.23;;;4.90;99.90;;;;;;5032804;28;20231;-81
2022/01/07 14:51:20;;;;;;;2.77;1.73;;;4.80;99.90;;;;;;5038042;28;20203;-81
2022/01/07 14:54:17;;;;;;;6.43;1.40;;;5.20;99.90;;;;;;5039241;28;20192;-81
2022/01/07 14:56:59;;;;;;;4.67;1.80;;;5.00;99.90;;;;;;5038366;28;20200;-81
2022/01/07 14:59:33;;;;;;;4.13;1.80;;;5.00;99.90;;;;;;5038428;28;20212;-80
2022/01/07 15:02:42;;;;;;;2.30;1.80;;;5.00;99.90;;;;;;5038729;28;20437;-82
2022/01/07 15:05:14;;;;;;;4.17;1.47;;;4.90;99.90;;;;;;5039295;28;20203;-81
2022/01/07 15:08:25;;;;;;;1.47;0.80;;;4.90;99.90;;;;;;5039243;28;20441;-79
2022/01/07 15:11:11;;;;;;;2.83;1.33;;;4.80;99.90;;;;;;5037976;28;20423;-81
2022/01/07 15:14:21;;;;;;;4.63;1.20;;;4.90;99.90;;;;;;5034086;28;20263;-81
2022/01/07 15:16:52;;;;;;;1.60;0.93;;;4.90;99.90;;;;;;5039351;28;20235;-81
2022/01/07 15:25:45;;;;;;;2.63;1.90;;;4.80;99.90;;;;;;5026608;28;20215;-81
2022/01/07 15:28:39;;;;;;;3.30;1.80;;;4.70;99.90;;;;;;5037494;28;20188;-81
2022/01/07 15:31:22;;;;;;;4.07;2.00;;;4.60;99.90;;;;;;5037800;28;20448;-81
2022/01/07 15:34:10;;;;;;;2.70;2.27;;;4.50;99.90;;;;;;5036654;28;20454;-81
2022/01/07 15:37:32;;;;;;;4.35;2.47;;;4.40;99.90;;;;;;5037003;28;20440;-81
2022/01/07 15:40:12;;;;;;;3.83;2.73;;;4.50;99.90;;;;;;5031272;28;20220;-81
2022/01/07 15:42:43;;;;;;;3.33;2.10;;;4.50;99.90;;;;;;5018449;28;20204;-81
2022/01/07 15:48:27;;;;;;;3.37;2.40;;;4.40;99.90;;;;;;5015518;28;20263;-81
2022/01/07 15:51:03;;;;;;;3.93;2.93;;;4.30;99.90;;;;;;5000233;28;20212;-81
2022/01/07 15:53:35;;;;;;;6.37;3.37;;;4.30;99.90;;;;;;5017001;28;20246;-81
2022/01/07 15:56:07;;;;;;;4.67;3.20;;;4.30;99.90;;;;;;5033180;28;20184;-81
2022/01/07 15:58:45;;;;;;;6.43;3.53;;;4.30;99.90;;;;;;5015996;28;20508;-81
2022/01/07 16:01:32;;;;;;;4.03;3.63;;;4.30;99.90;;;;;;5000749;28;20212;-82
2022/01/07 16:04:11;;;;;;;11.63;4.13;;;4.30;99.90;;;;;;5018276;28;20450;-80
2022/01/07 16:15:50;;;;;;;10.00;4.53;;;4.30;99.90;;;;;;5016001;28;20437;-81
2022/01/07 16:19:01;;;;;;;10.33;5.03;;;4.40;99.90;;;;;;5017792;28;20474;-82
2022/01/07 16:21:44;;;;;;;9.23;5.33;;;4.40;99.90;;;;;;5017260;28;20501;-81
2022/01/07 16:24:40;;;;;;;10.57;5.27;;;4.40;99.90;;;;;;5001251;28;20189;-82
2022/01/07 16:27:32;;;;;;;9.40;5.20;;;4.30;99.90;;;;;;5017877;28;20462;-80
2022/01/07 16:30:36;;;;;;;8.90;5.37;;;4.30;99.90;;;;;;5000266;28;20252;-81